createdAt,value
2018-06-17T00:00:25.379Z,99.99
2018-06-17T00:01:25.439Z,99.99
2018-06-17T00:02:25.503Z,99.99
2018-06-17T00:03:25.565Z,99.99
2018-06-17T00:04:25.623Z,99.99
2018-06-17T00:05:25.683Z,99.99
2018-06-17T00:06:25.745Z,99.99
2018-06-17T00:07:25.806Z,99.99
2018-06-17T00:08:25.867Z,99.99
2018-06-17T00:09:25.930Z,99.99
2018-06-17T00:10:25.991Z,99.99
2018-06-17T00:11:26.052Z,99.99
2018-06-17T00:12:26.113Z,99.99
2018-06-17T00:13:26.173Z,99.99
2018-06-17T00:14:26.234Z,99.99
2018-06-17T00:15:26.299Z,99.99
2018-06-17T00:16:26.357Z,99.99
2018-06-17T00:17:26.417Z,99.99
2018-06-17T00:18:26.479Z,99.99
2018-06-17T00:19:26.540Z,99.99
2018-06-17T00:20:26.608Z,99.99
2018-06-17T00:21:26.691Z,99.99
2018-06-17T00:22:26.723Z,99.99
2018-06-17T00:23:26.783Z,99.99
2018-06-17T00:24:26.857Z,99.99
2018-06-17T00:25:27.223Z,99.99
2018-06-17T00:26:26.967Z,99.99
2018-06-17T00:27:27.028Z,99.99
2018-06-17T00:28:27.093Z,99.99
2018-06-17T00:29:27.149Z,99.99
2018-06-17T00:30:27.210Z,99.99
2018-06-17T00:31:27.271Z,99.99
2018-06-17T00:32:27.332Z,99.99
2018-06-17T00:33:27.393Z,99.99
2018-06-17T00:34:27.454Z,99.99
2018-06-17T00:35:27.515Z,99.99
2018-06-17T00:36:27.578Z,99.99
2018-06-17T00:37:27.636Z,99.99
2018-06-17T00:38:27.697Z,99.99
2018-06-17T00:39:27.758Z,99.99
2018-06-17T00:40:27.819Z,99.99
2018-06-17T00:41:27.879Z,99.99
2018-06-17T00:42:27.941Z,99.99
2018-06-17T00:43:28.004Z,99.99
2018-06-17T00:44:28.063Z,99.99
2018-06-17T00:45:28.123Z,99.99
2018-06-17T00:46:28.186Z,99.99
2018-06-17T00:47:28.246Z,99.99
2018-06-17T00:48:28.306Z,99.99
2018-06-17T00:49:28.366Z,99.99
2018-06-17T00:50:28.427Z,99.99
2018-06-17T00:51:28.489Z,99.99
2018-06-17T00:52:28.548Z,99.99
2018-06-17T00:53:28.609Z,99.99
2018-06-17T00:54:28.670Z,99.99
2018-06-17T00:55:28.730Z,99.99
2018-06-17T00:56:28.791Z,99.99
2018-06-17T00:57:28.851Z,99.99
2018-06-17T00:58:28.912Z,99.99
2018-06-17T00:59:28.972Z,99.99
2018-06-17T01:00:29.033Z,99.99
2018-06-17T01:01:29.093Z,99.99
2018-06-17T01:02:29.154Z,99.99
2018-06-17T01:03:29.215Z,99.99
2018-06-17T01:04:29.276Z,99.99
2018-06-17T01:05:29.337Z,99.99
2018-06-17T01:06:29.396Z,99.99
2018-06-17T01:07:29.459Z,99.99
2018-06-17T01:08:29.517Z,99.99
2018-06-17T01:09:29.577Z,99.99
2018-06-17T01:10:29.640Z,99.99
2018-06-17T01:11:29.700Z,99.99
2018-06-17T01:12:29.759Z,99.99
2018-06-17T01:13:29.819Z,99.99
2018-06-17T01:14:29.880Z,99.99
2018-06-17T01:15:29.941Z,99.99
2018-06-17T01:16:30.001Z,99.99
2018-06-17T01:17:30.061Z,99.99
2018-06-17T01:18:30.121Z,99.99
2018-06-17T01:19:30.182Z,99.99
2018-06-17T01:20:30.242Z,99.99
2018-06-17T01:21:30.302Z,99.99
2018-06-17T01:22:30.363Z,99.99
2018-06-17T01:23:30.426Z,99.99
2018-06-17T01:24:30.485Z,99.99
2018-06-17T01:25:30.544Z,99.99
2018-06-17T01:26:30.605Z,99.99
2018-06-17T01:27:30.816Z,99.99
2018-06-17T01:28:30.726Z,99.99
2018-06-17T01:29:30.786Z,99.99
2018-06-17T01:30:30.849Z,99.99
2018-06-17T01:31:30.906Z,99.99
2018-06-17T01:32:30.968Z,99.99
2018-06-17T01:33:31.026Z,99.99
2018-06-17T01:34:31.088Z,99.99
2018-06-17T01:35:31.147Z,99.99
2018-06-17T01:36:31.211Z,99.99
2018-06-17T01:37:31.267Z,99.99
2018-06-17T01:38:31.329Z,99.99
2018-06-17T01:39:31.389Z,99.99
2018-06-17T01:40:31.449Z,99.99
2018-06-17T01:41:31.509Z,99.99
2018-06-17T01:42:31.569Z,99.99
2018-06-17T01:43:31.630Z,99.99
2018-06-17T01:44:31.691Z,99.99
2018-06-17T01:45:31.750Z,99.99
2018-06-17T01:46:31.813Z,99.99
2018-06-17T01:47:31.871Z,99.99
2018-06-17T01:48:31.932Z,99.99
2018-06-17T01:49:31.991Z,99.99
2018-06-17T01:50:32.052Z,99.99
2018-06-17T01:51:32.113Z,99.99
2018-06-17T01:52:32.173Z,99.99
2018-06-17T01:53:32.232Z,99.99
2018-06-17T01:54:32.293Z,99.99
2018-06-17T01:55:32.352Z,99.99
2018-06-17T01:56:32.414Z,99.99
2018-06-17T01:57:32.474Z,99.99
2018-06-17T01:58:32.533Z,99.99
2018-06-17T01:59:32.594Z,99.99
2018-06-17T02:00:32.656Z,99.99
2018-06-17T02:01:32.714Z,99.99
2018-06-17T02:02:32.774Z,99.99
2018-06-17T02:03:32.835Z,99.99
2018-06-17T02:04:32.896Z,99.99
2018-06-17T02:05:32.955Z,99.99
2018-06-17T02:06:33.016Z,99.99
2018-06-17T02:07:33.075Z,99.99
2018-06-17T02:08:33.136Z,99.99
2018-06-17T02:09:33.196Z,99.99
2018-06-17T02:10:33.257Z,99.99
2018-06-17T02:11:33.317Z,99.99
2018-06-17T02:12:33.377Z,99.99
2018-06-17T02:13:33.437Z,99.99
2018-06-17T02:14:33.498Z,99.99
2018-06-17T02:15:33.557Z,99.99
2018-06-17T02:16:33.618Z,99.99
2018-06-17T02:17:33.678Z,99.99
2018-06-17T02:18:33.739Z,99.99
2018-06-17T02:19:33.799Z,99.99
2018-06-17T02:20:33.861Z,99.99
2018-06-17T02:21:33.921Z,99.99
2018-06-17T02:22:33.981Z,99.99
2018-06-17T02:23:34.041Z,99.99
2018-06-17T02:24:34.250Z,99.99
2018-06-17T02:25:34.159Z,99.99
2018-06-17T02:26:34.220Z,99.99
2018-06-17T02:27:34.280Z,99.99
2018-06-17T02:28:34.341Z,99.99
2018-06-17T02:29:34.400Z,99.99
2018-06-17T02:30:34.462Z,99.99
2018-06-17T02:31:34.526Z,99.99
2018-06-17T02:32:34.583Z,99.99
2018-06-17T02:33:34.642Z,99.99
2018-06-17T02:34:34.703Z,99.99
2018-06-17T02:35:34.763Z,99.99
2018-06-17T02:36:34.873Z,99.99
2018-06-17T02:37:34.884Z,99.99
2018-06-17T02:38:34.943Z,99.99
2018-06-17T02:39:35.004Z,99.99
2018-06-17T02:40:35.064Z,99.99
2018-06-17T02:41:35.123Z,99.99
2018-06-17T02:42:35.184Z,99.99
2018-06-17T02:43:35.244Z,99.99
2018-06-17T02:44:35.304Z,99.99
2018-06-17T02:45:35.364Z,99.99
2018-06-17T02:46:35.426Z,99.99
2018-06-17T02:47:35.489Z,99.99
2018-06-17T02:48:35.545Z,99.99
2018-06-17T02:49:35.605Z,99.99
2018-06-17T02:50:35.668Z,99.99
2018-06-17T02:51:35.725Z,99.99
2018-06-17T02:52:35.785Z,99.99
2018-06-17T02:53:35.846Z,99.99
2018-06-17T02:54:35.905Z,99.99
2018-06-17T02:55:35.966Z,99.99
2018-06-17T02:56:36.026Z,99.99
2018-06-17T02:57:36.086Z,99.99
2018-06-17T02:58:36.163Z,99.99
2018-06-17T02:59:36.206Z,99.99
2018-06-17T03:00:36.272Z,99.99
2018-06-17T03:01:36.329Z,99.99
2018-06-17T03:02:36.386Z,99.99
2018-06-17T03:03:36.447Z,99.99
2018-06-17T03:04:36.507Z,99.99
2018-06-17T03:05:36.567Z,99.99
2018-06-17T03:06:36.626Z,99.99
2018-06-17T03:07:36.688Z,99.99
2018-06-17T03:08:36.747Z,99.99
2018-06-17T03:09:37.058Z,99.99
2018-06-17T03:10:36.870Z,99.99
2018-06-17T03:11:36.930Z,99.99
2018-06-17T03:12:36.988Z,99.99
2018-06-17T03:13:37.052Z,99.99
2018-06-17T03:14:37.107Z,99.99
2018-06-17T03:15:37.168Z,99.99
2018-06-17T03:16:37.228Z,99.99
2018-06-17T03:17:37.288Z,99.99
2018-06-17T03:18:37.349Z,99.99
2018-06-17T03:19:37.408Z,99.99
2018-06-17T03:20:37.472Z,99.99
2018-06-17T03:21:37.527Z,99.99
2018-06-17T03:22:37.594Z,99.99
2018-06-17T03:23:37.649Z,99.99
2018-06-17T03:24:37.737Z,99.99
2018-06-17T03:25:37.768Z,99.99
2018-06-17T03:26:38.079Z,99.99
2018-06-17T03:27:37.888Z,99.99
2018-06-17T03:28:37.970Z,99.99
2018-06-17T03:29:38.010Z,99.99
2018-06-17T03:30:38.071Z,99.99
2018-06-17T03:31:38.131Z,99.99
2018-06-17T03:32:38.189Z,99.99
2018-06-17T03:33:38.249Z,99.99
2018-06-17T03:34:38.309Z,99.99
2018-06-17T03:35:38.370Z,99.99
2018-06-17T03:36:38.430Z,99.99
2018-06-17T03:37:38.492Z,99.99
2018-06-17T03:38:38.550Z,99.99
2018-06-17T03:39:38.646Z,99.99
2018-06-17T03:40:38.671Z,99.99
2018-06-17T03:41:38.732Z,99.99
2018-06-17T03:42:38.789Z,99.99
2018-06-17T03:43:38.851Z,99.99
2018-06-17T03:44:38.911Z,99.99
2018-06-17T03:45:38.971Z,99.99
2018-06-17T03:46:39.031Z,99.99
2018-06-17T03:47:39.091Z,99.99
2018-06-17T03:48:39.151Z,99.99
2018-06-17T03:49:39.211Z,99.99
2018-06-17T03:50:39.271Z,99.99
2018-06-17T03:51:39.332Z,99.99
2018-06-17T03:52:39.391Z,99.99
2018-06-17T03:53:39.451Z,99.99
2018-06-17T03:54:39.510Z,99.99
2018-06-17T03:55:39.572Z,99.99
2018-06-17T03:56:39.632Z,99.99
2018-06-17T03:57:39.691Z,99.99
2018-06-17T03:58:39.753Z,99.99
2018-06-17T03:59:39.811Z,99.99
2018-06-17T04:00:39.872Z,99.99
2018-06-17T04:01:39.932Z,99.99
2018-06-17T04:02:39.993Z,99.99
2018-06-17T04:03:40.052Z,99.99
2018-06-17T04:04:40.116Z,99.99
2018-06-17T04:05:40.175Z,99.99
2018-06-17T04:06:40.233Z,99.99
2018-06-17T04:07:40.293Z,99.99
2018-06-17T04:08:40.354Z,99.99
2018-06-17T04:09:40.413Z,99.99
2018-06-17T04:10:40.496Z,99.99
2018-06-17T04:11:40.533Z,99.99
2018-06-17T04:12:40.844Z,99.99
2018-06-17T04:13:40.654Z,99.99
2018-06-17T04:14:40.717Z,99.99
2018-06-17T04:15:40.773Z,99.99
2018-06-17T04:16:40.834Z,99.99
2018-06-17T04:17:40.892Z,99.99
2018-06-17T04:18:40.953Z,99.99
2018-06-17T04:19:41.013Z,99.99
2018-06-17T04:20:41.074Z,99.99
2018-06-17T04:21:41.133Z,99.99
2018-06-17T04:22:41.194Z,99.99
2018-06-17T04:23:41.255Z,99.99
2018-06-17T04:24:41.315Z,99.99
2018-06-17T04:25:41.445Z,99.99
2018-06-17T04:26:41.437Z,99.99
2018-06-17T04:27:41.498Z,99.99
2018-06-17T04:28:41.555Z,99.99
2018-06-17T04:29:41.616Z,99.99
2018-06-17T04:30:41.676Z,99.99
2018-06-17T04:31:41.736Z,99.99
2018-06-17T04:32:41.797Z,99.99
2018-06-17T04:33:41.855Z,99.99
2018-06-17T04:34:41.918Z,99.99
2018-06-17T04:35:41.982Z,99.99
2018-06-17T04:36:42.036Z,99.99
2018-06-17T04:37:42.102Z,99.99
2018-06-17T04:38:42.165Z,99.99
2018-06-17T04:39:42.218Z,99.99
2018-06-17T04:40:42.280Z,99.99
2018-06-17T04:41:42.338Z,99.99
2018-06-17T04:42:42.398Z,99.99
2018-06-17T04:43:42.458Z,99.99
2018-06-17T04:44:42.520Z,99.99
2018-06-17T04:45:42.579Z,99.99
2018-06-17T04:46:42.642Z,99.99
2018-06-17T04:47:42.701Z,99.99
2018-06-17T04:48:42.763Z,99.99
2018-06-17T04:49:42.821Z,99.99
2018-06-17T04:50:42.884Z,99.99
2018-06-17T04:51:42.943Z,99.99
2018-06-17T04:52:43.002Z,99.99
2018-06-17T04:53:43.063Z,99.99
2018-06-17T04:54:43.126Z,99.99
2018-06-17T04:55:43.185Z,99.99
2018-06-17T04:56:43.246Z,99.99
2018-06-17T04:57:43.306Z,99.99
2018-06-17T04:58:43.365Z,99.99
2018-06-17T04:59:43.438Z,99.99
2018-06-17T05:00:43.488Z,99.99
2018-06-17T05:01:43.548Z,99.99
2018-06-17T05:02:43.610Z,99.99
2018-06-17T05:03:43.669Z,99.99
2018-06-17T05:04:43.731Z,99.99
2018-06-17T05:05:43.791Z,99.99
2018-06-17T05:06:43.854Z,99.99
2018-06-17T05:07:43.912Z,99.99
2018-06-17T05:08:43.973Z,99.99
2018-06-17T05:09:44.033Z,99.99
2018-06-17T05:10:44.096Z,99.99
2018-06-17T05:11:44.155Z,99.99
2018-06-17T05:12:44.219Z,99.99
2018-06-17T05:13:44.280Z,99.99
2018-06-17T05:14:44.342Z,99.99
2018-06-17T05:15:44.400Z,99.99
2018-06-17T05:16:44.459Z,99.99
2018-06-17T05:17:44.523Z,99.99
2018-06-17T05:18:44.581Z,99.99
2018-06-17T05:19:44.647Z,99.99
2018-06-17T05:20:44.704Z,99.99
2018-06-17T05:21:44.762Z,99.99
2018-06-17T05:22:44.825Z,99.99
2018-06-17T05:23:44.885Z,99.99
2018-06-17T05:24:44.948Z,99.99
2018-06-17T05:25:45.012Z,99.99
2018-06-17T05:26:45.070Z,99.99
2018-06-17T05:27:45.132Z,99.99
2018-06-17T05:28:45.192Z,99.99
2018-06-17T05:29:45.253Z,99.99
2018-06-17T05:30:45.315Z,99.99
2018-06-17T05:31:45.377Z,99.99
2018-06-17T05:32:45.437Z,99.99
2018-06-17T05:33:45.555Z,99.99
2018-06-17T05:34:45.560Z,99.99
2018-06-17T05:35:45.621Z,99.99
2018-06-17T05:36:45.684Z,99.99
2018-06-17T05:37:45.745Z,99.99
2018-06-17T05:38:45.814Z,99.99
2018-06-17T05:39:45.867Z,99.99
2018-06-17T05:40:45.929Z,99.99
2018-06-17T05:41:45.989Z,99.99
2018-06-17T05:42:46.052Z,99.99
2018-06-17T05:43:46.114Z,99.99
2018-06-17T05:44:46.175Z,99.99
2018-06-17T05:45:46.235Z,99.99
2018-06-17T05:46:46.298Z,99.99
2018-06-17T05:47:46.358Z,99.99
2018-06-17T05:48:46.420Z,99.99
2018-06-17T05:49:46.482Z,99.99
2018-06-17T05:50:46.544Z,99.99
2018-06-17T05:51:46.605Z,99.99
2018-06-17T05:52:46.684Z,99.99
2018-06-17T05:53:46.727Z,99.99
2018-06-17T05:54:46.787Z,99.99
2018-06-17T05:55:46.886Z,99.99
2018-06-17T05:56:46.915Z,99.99
2018-06-17T05:57:46.974Z,99.99
2018-06-17T05:58:47.034Z,99.99
2018-06-17T05:59:47.095Z,99.99
2018-06-17T06:00:47.157Z,99.99
2018-06-17T06:01:47.218Z,99.99
2018-06-17T06:02:47.284Z,99.99
2018-06-17T06:03:47.341Z,99.99
2018-06-17T06:04:47.404Z,99.99
2018-06-17T06:05:47.465Z,99.99
2018-06-17T06:06:47.524Z,99.99
2018-06-17T06:07:47.587Z,99.99
2018-06-17T06:08:47.648Z,99.99
2018-06-17T06:09:47.710Z,99.99
2018-06-17T06:10:47.774Z,99.99
2018-06-17T06:11:47.984Z,99.99
2018-06-17T06:12:47.895Z,99.99
2018-06-17T06:13:47.956Z,99.99
2018-06-17T06:14:48.019Z,99.99
2018-06-17T06:15:48.081Z,99.99
2018-06-17T06:16:48.143Z,99.99
2018-06-17T06:17:48.204Z,99.99
2018-06-17T06:18:48.267Z,99.99
2018-06-17T06:19:48.327Z,99.99
2018-06-17T06:20:48.389Z,99.99
2018-06-17T06:21:48.450Z,99.99
2018-06-17T06:22:48.513Z,99.99
2018-06-17T06:23:48.575Z,99.99
2018-06-17T06:24:48.663Z,99.99
2018-06-17T06:25:48.702Z,99.99
2018-06-17T06:26:48.761Z,99.99
2018-06-17T06:27:48.822Z,99.99
2018-06-17T06:28:48.886Z,99.99
2018-06-17T06:29:48.950Z,99.99
2018-06-17T06:30:49.009Z,99.99
2018-06-17T06:31:49.072Z,99.99
2018-06-17T06:32:49.138Z,99.99
2018-06-17T06:33:49.199Z,99.99
2018-06-17T06:34:49.257Z,99.99
2018-06-17T06:35:49.323Z,99.99
2018-06-17T06:36:49.386Z,99.99
2018-06-17T06:37:49.446Z,99.99
2018-06-17T06:38:49.508Z,99.99
2018-06-17T06:39:49.572Z,99.99
2018-06-17T06:40:49.635Z,99.99
2018-06-17T06:41:49.697Z,99.99
2018-06-17T06:42:52.423Z,99.99
2018-06-17T06:43:49.822Z,99.99
2018-06-17T06:44:49.895Z,99.99
2018-06-17T06:45:49.950Z,99.99
2018-06-17T06:46:50.011Z,99.99
2018-06-17T06:47:50.074Z,99.99
2018-06-17T06:48:50.136Z,99.99
2018-06-17T06:49:50.198Z,99.99
2018-06-17T06:50:50.306Z,99.99
2018-06-17T06:51:50.324Z,99.99
2018-06-17T06:52:50.391Z,99.99
2018-06-17T06:53:50.450Z,99.99
2018-06-17T06:54:50.513Z,99.99
2018-06-17T06:55:50.575Z,99.99
2018-06-17T06:56:50.639Z,99.99
2018-06-17T06:57:50.701Z,99.99
2018-06-17T06:58:50.763Z,99.99
2018-06-17T06:59:50.827Z,99.99
2018-06-17T07:00:50.890Z,99.99
2018-06-17T07:01:50.953Z,99.99
2018-06-17T07:02:51.016Z,99.99
2018-06-17T07:03:51.079Z,99.99
2018-06-17T07:04:51.143Z,99.99
2018-06-17T07:05:51.206Z,99.99
2018-06-17T07:07:33.710Z,99.99
2018-06-17T07:08:33.774Z,99.99
2018-06-17T07:09:33.837Z,99.99
2018-06-17T07:10:33.904Z,99.83
2018-06-17T07:11:33.963Z,99.44
2018-06-17T07:12:34.027Z,99.78
2018-06-17T07:13:34.091Z,99.98
2018-06-17T07:14:34.159Z,99.99
2018-06-17T07:15:34.221Z,99.99
2018-06-17T07:16:34.282Z,99.68
2018-06-17T07:17:34.346Z,96.42
2018-06-17T07:18:34.409Z,97.28
2018-06-17T07:19:34.473Z,97.76
2018-06-17T07:20:34.538Z,98.34
2018-06-17T07:21:34.601Z,96.61
2018-06-17T07:22:34.666Z,97.47
2018-06-17T07:23:34.728Z,97.28
2018-06-17T07:24:34.800Z,97.09
2018-06-17T07:25:34.858Z,98.72
2018-06-17T07:26:34.921Z,99.11
2018-06-17T07:27:34.984Z,98.34
2018-06-17T07:28:35.055Z,97.33
2018-06-17T07:29:35.111Z,97.86
2018-06-17T07:30:35.177Z,98.87
2018-06-17T07:31:35.237Z,98.10
2018-06-17T07:32:36.004Z,98.49
2018-06-17T07:33:35.366Z,99.21
2018-06-17T07:34:35.430Z,99.59
2018-06-17T07:35:35.492Z,99.11
2018-06-17T07:36:35.557Z,99.21
2018-06-17T07:37:35.620Z,99.78
2018-06-17T07:38:35.684Z,99.44
2018-06-17T07:39:35.748Z,95.12
2018-06-17T07:40:35.810Z,94.68
2018-06-17T07:41:35.875Z,94.92
2018-06-17T07:42:35.938Z,94.83
2018-06-17T07:43:36.003Z,92.95
2018-06-17T07:44:36.064Z,92.81
2018-06-17T07:45:36.129Z,91.56
2018-06-17T07:46:36.191Z,91.03
2018-06-17T07:47:36.258Z,90.73
2018-06-17T07:48:36.317Z,90.83
2018-06-17T07:49:36.381Z,90.73
2018-06-17T07:50:36.444Z,90.30
2018-06-17T07:51:36.507Z,88.57
2018-06-17T07:52:36.570Z,87.76
2018-06-17T07:53:36.643Z,85.83
2018-06-17T07:54:36.697Z,86.22
2018-06-17T07:55:36.762Z,85.30
2018-06-17T07:56:36.824Z,85.25
2018-06-17T07:57:36.891Z,85.49
2018-06-17T07:58:36.959Z,82.98
2018-06-17T07:59:37.014Z,83.37
2018-06-17T08:00:37.078Z,84.53
2018-06-17T08:01:37.142Z,84.05
2018-06-17T08:02:37.205Z,84.81
2018-06-17T08:03:37.268Z,84.91
2018-06-17T08:04:37.348Z,84.81
2018-06-17T08:05:37.396Z,84.62
2018-06-17T08:06:37.461Z,84.23
2018-06-17T08:07:37.524Z,85.58
2018-06-17T08:08:37.588Z,85.24
2018-06-17T08:09:37.653Z,82.35
2018-06-17T08:10:37.716Z,79.94
2018-06-17T08:11:37.778Z,80.33
2018-06-17T08:12:37.842Z,78.21
2018-06-17T08:13:37.908Z,79.46
2018-06-17T08:14:37.970Z,76.38
2018-06-17T08:15:38.034Z,76.86
2018-06-17T08:16:38.098Z,77.00
2018-06-17T08:17:38.166Z,76.23
2018-06-17T08:18:38.227Z,76.32
2018-06-17T08:19:38.290Z,76.42
2018-06-17T08:20:38.356Z,75.26
2018-06-17T08:21:38.419Z,75.01
2018-06-17T08:22:38.484Z,74.30
2018-06-17T08:23:38.548Z,75.65
2018-06-17T08:24:38.612Z,75.16
2018-06-17T08:25:38.676Z,74.97
2018-06-17T08:26:38.741Z,74.58
2018-06-17T08:27:38.805Z,73.82
2018-06-17T08:28:38.870Z,74.40
2018-06-17T08:29:38.937Z,74.33
2018-06-17T08:30:38.999Z,73.41
2018-06-17T08:31:39.068Z,73.89
2018-06-17T08:32:39.127Z,73.11
2018-06-17T08:33:39.192Z,72.60
2018-06-17T08:34:39.270Z,72.69
2018-06-17T08:35:39.322Z,71.54
2018-06-17T08:36:39.386Z,70.92
2018-06-17T08:37:39.451Z,71.02
2018-06-17T08:38:39.517Z,71.34
2018-06-17T08:39:39.581Z,72.02
2018-06-17T08:40:39.645Z,72.99
2018-06-17T08:41:39.711Z,72.50
2018-06-17T08:42:39.776Z,72.44
2018-06-17T08:43:39.840Z,70.94
2018-06-17T08:44:39.904Z,70.94
2018-06-17T08:45:39.980Z,70.10
2018-06-17T08:46:40.038Z,69.39
2018-06-17T08:47:40.102Z,69.64
2018-06-17T08:48:40.168Z,70.03
2018-06-17T08:49:40.232Z,70.90
2018-06-17T08:50:40.298Z,70.26
2018-06-17T08:51:40.364Z,69.97
2018-06-17T08:52:40.431Z,69.39
2018-06-17T08:53:40.495Z,69.58
2018-06-17T08:54:40.566Z,69.20
2018-06-17T08:55:40.626Z,69.39
2018-06-17T08:56:40.693Z,69.00
2018-06-17T08:57:40.758Z,68.13
2018-06-17T08:58:40.825Z,68.23
2018-06-17T08:59:40.890Z,68.59
2018-06-17T09:00:40.968Z,69.26
2018-06-17T09:01:41.023Z,70.76
2018-06-17T09:02:41.089Z,71.44
2018-06-17T09:03:41.154Z,71.28
2018-06-17T09:04:41.221Z,70.84
2018-06-17T09:05:41.286Z,69.78
2018-06-17T09:06:41.393Z,69.29
2018-06-17T09:07:41.421Z,69.29
2018-06-17T09:08:41.485Z,68.52
2018-06-17T09:09:41.551Z,68.26
2018-06-17T09:10:41.617Z,68.94
2018-06-17T09:11:41.682Z,68.65
2018-06-17T09:12:41.748Z,68.75
2018-06-17T09:13:41.816Z,68.84
2018-06-17T09:14:41.883Z,68.17
2018-06-17T09:15:41.950Z,68.26
2018-06-17T09:16:42.013Z,69.29
2018-06-17T09:17:42.082Z,69.04
2018-06-17T09:18:42.147Z,67.49
2018-06-17T09:19:42.214Z,67.14
2018-06-17T09:20:42.284Z,66.27
2018-06-17T09:21:42.347Z,66.05
2018-06-17T09:22:42.413Z,66.08
2018-06-17T09:23:42.478Z,65.85
2018-06-17T09:24:42.549Z,67.49
2018-06-17T09:25:42.612Z,67.01
2018-06-17T09:26:42.679Z,67.11
2018-06-17T09:27:42.745Z,67.75
2018-06-17T09:28:42.811Z,68.10
2018-06-17T09:29:42.879Z,69.45
2018-06-17T09:30:42.946Z,69.49
2018-06-17T09:31:43.074Z,68.17
2018-06-17T09:32:43.078Z,67.69
2018-06-17T09:33:43.144Z,68.07
2018-06-17T09:34:43.211Z,67.40
2018-06-17T09:35:43.332Z,67.85
2018-06-17T09:36:43.347Z,68.68
2018-06-17T09:37:43.410Z,69.20
2018-06-17T09:38:43.477Z,69.42
2018-06-17T09:39:43.544Z,67.52
2018-06-17T09:40:43.611Z,66.66
2018-06-17T09:41:43.679Z,66.36
2018-06-17T09:42:43.743Z,65.43
2018-06-17T09:43:43.811Z,65.40
2018-06-17T09:44:43.877Z,65.30
2018-06-17T09:45:43.945Z,68.07
2018-06-17T09:46:44.604Z,67.55
2018-06-17T09:47:44.080Z,68.71
2018-06-17T09:48:44.144Z,67.94
2018-06-17T09:49:44.219Z,67.11
2018-06-17T09:50:44.279Z,66.43
2018-06-17T09:51:44.345Z,66.75
2018-06-17T09:52:44.413Z,66.94
2018-06-17T09:53:44.480Z,65.88
2018-06-17T09:54:44.547Z,65.30
2018-06-17T09:55:44.613Z,64.43
2018-06-17T09:56:44.681Z,63.66
2018-06-17T09:57:44.748Z,63.76
2018-06-17T09:58:44.816Z,63.37
2018-06-17T09:59:44.882Z,64.14
2018-06-17T10:00:44.953Z,62.98
2018-06-17T10:01:45.075Z,65.37
2018-06-17T10:02:45.085Z,64.82
2018-06-17T10:03:45.153Z,62.70
2018-06-17T10:04:45.220Z,62.24
2018-06-17T10:05:45.288Z,60.99
2018-06-17T10:06:45.357Z,61.18
2018-06-17T10:07:45.423Z,62.40
2018-06-17T10:08:45.491Z,64.05
2018-06-17T10:09:45.559Z,63.37
2018-06-17T10:10:45.628Z,63.50
2018-06-17T10:11:45.695Z,63.31
2018-06-17T10:12:45.763Z,63.79
2018-06-17T10:13:45.832Z,62.95
2018-06-17T10:14:45.902Z,62.01
2018-06-17T10:15:45.968Z,59.59
2018-06-17T10:16:46.041Z,60.47
2018-06-17T10:17:46.568Z,59.21
2018-06-17T10:18:46.180Z,59.69
2018-06-17T10:19:46.245Z,59.89
2018-06-17T10:20:46.314Z,60.05
2018-06-17T10:21:46.385Z,60.08
2018-06-17T10:22:46.454Z,58.70
2018-06-17T10:23:46.523Z,60.09
2018-06-17T10:24:46.593Z,62.02
2018-06-17T10:25:46.662Z,60.86
2018-06-17T10:26:46.731Z,60.38
2018-06-17T10:27:46.800Z,60.76
2018-06-17T10:28:46.870Z,61.25
2018-06-17T10:29:47.190Z,61.54
2018-06-17T10:30:47.009Z,61.83
2018-06-17T10:31:47.077Z,61.15
2018-06-17T10:32:47.147Z,60.38
2018-06-17T10:33:47.217Z,59.99
2018-06-17T10:34:47.285Z,59.41
2018-06-17T10:35:47.355Z,60.47
2018-06-17T10:36:47.423Z,60.38
2018-06-17T10:37:47.509Z,60.41
2018-06-17T10:38:47.573Z,60.14
2018-06-17T10:39:47.629Z,59.73
2018-06-17T10:40:47.698Z,60.11
2018-06-17T10:41:47.769Z,60.99
2018-06-17T10:42:47.838Z,60.14
2018-06-17T10:43:47.906Z,59.79
2018-06-17T10:44:47.976Z,58.72
2018-06-17T10:45:48.046Z,57.59
2018-06-17T10:46:48.115Z,58.07
2018-06-17T10:47:48.183Z,58.01
2018-06-17T10:48:48.275Z,56.39
2018-06-17T10:49:48.322Z,56.29
2018-06-17T10:50:48.392Z,56.94
2018-06-17T10:51:48.460Z,56.75
2018-06-17T10:52:56.361Z,56.94
2018-06-17T10:53:48.600Z,56.82
2018-06-17T10:54:48.673Z,56.94
2018-06-17T10:55:48.790Z,58.07
2018-06-17T10:56:48.809Z,56.97
2018-06-17T10:57:48.880Z,55.32
2018-06-17T10:58:48.951Z,55.22
2018-06-17T10:59:49.020Z,54.99
2018-06-17T11:00:49.091Z,53.53
2018-06-17T11:01:49.161Z,53.15
2018-06-17T11:02:49.232Z,53.17
2018-06-17T11:03:49.302Z,53.44
2018-06-17T11:04:49.378Z,55.26
2018-06-17T11:05:49.449Z,55.81
2018-06-17T11:06:49.523Z,56.49
2018-06-17T11:07:49.588Z,56.49
2018-06-17T11:08:49.662Z,57.69
2018-06-17T11:09:49.731Z,58.47
2018-06-17T11:10:49.803Z,59.05
2018-06-17T11:11:49.873Z,58.14
2018-06-17T11:12:49.943Z,58.52
2018-06-17T11:13:50.015Z,56.97
2018-06-17T11:14:50.087Z,56.61
2018-06-17T11:15:50.306Z,56.13
2018-06-17T11:16:50.226Z,56.97
2018-06-17T11:17:50.297Z,58.27
2018-06-17T11:18:50.372Z,58.92
2018-06-17T11:19:50.438Z,58.95
2018-06-17T11:20:50.509Z,59.05
2018-06-17T11:21:50.579Z,58.85
2018-06-17T11:22:50.650Z,59.46
2018-06-17T11:23:50.721Z,59.07
2018-06-17T11:24:50.789Z,59.72
2018-06-17T11:25:50.859Z,60.11
2018-06-17T11:26:50.931Z,62.08
2018-06-17T11:27:50.998Z,61.79
2018-06-17T11:28:51.069Z,61.56
2018-06-17T11:29:51.140Z,60.11
2018-06-17T11:30:51.208Z,59.72
2018-06-17T11:31:51.278Z,60.17
2018-06-17T11:32:51.347Z,60.78
2018-06-17T11:33:51.418Z,60.92
2018-06-17T11:34:51.487Z,60.92
2018-06-17T11:35:51.556Z,60.37
2018-06-17T11:36:51.625Z,59.53
2018-06-17T11:37:51.695Z,59.11
2018-06-17T11:38:51.805Z,59.66
2018-06-17T11:39:51.835Z,60.72
2018-06-17T11:40:51.902Z,60.44
2018-06-17T11:41:51.971Z,60.92
2018-06-17T11:42:52.040Z,62.02
2018-06-17T11:43:52.109Z,62.21
2018-06-17T11:44:52.177Z,63.28
2018-06-17T11:45:52.245Z,63.21
2018-06-17T11:46:52.315Z,62.05
2018-06-17T11:47:52.383Z,62.34
2018-06-17T11:48:53.402Z,62.02
2018-06-17T11:49:52.519Z,61.37
2018-06-17T11:50:52.597Z,61.92
2018-06-17T11:51:52.663Z,62.70
2018-06-17T11:52:52.725Z,61.83
2018-06-17T11:53:52.803Z,61.83
2018-06-17T11:54:52.853Z,61.54
2018-06-17T11:55:52.922Z,63.15
2018-06-17T11:56:53.000Z,63.40
2018-06-17T11:57:53.569Z,63.63
2018-06-17T11:58:53.121Z,64.56
2018-06-17T11:59:53.187Z,64.31
2018-06-17T12:00:53.258Z,63.73
2018-06-17T12:01:53.345Z,63.63
2018-06-17T12:02:53.387Z,65.20
2018-06-17T12:03:53.452Z,63.56
2018-06-17T12:04:53.667Z,63.28
2018-06-17T12:05:53.584Z,63.21
2018-06-17T12:06:53.650Z,63.79
2018-06-17T12:07:53.715Z,63.79
2018-06-17T12:08:53.780Z,63.11
2018-06-17T12:09:53.848Z,62.34
2018-06-17T12:10:53.912Z,62.98
2018-06-17T12:11:53.980Z,63.28
2018-06-17T12:12:54.043Z,63.37
2018-06-17T12:13:54.107Z,63.21
2018-06-17T12:14:54.174Z,62.53
2018-06-17T12:15:54.240Z,62.34
2018-06-17T12:16:54.308Z,62.27
2018-06-17T12:17:54.372Z,61.79
2018-06-17T12:18:54.438Z,60.59
2018-06-17T12:19:54.505Z,58.33
2018-06-17T12:20:54.570Z,56.05
2018-06-17T12:21:54.639Z,54.86
2018-06-17T12:22:54.705Z,56.03
2018-06-17T12:23:54.770Z,57.45
2018-06-17T12:24:54.839Z,56.97
2018-06-17T12:25:54.907Z,56.97
2018-06-17T12:26:54.977Z,55.90
2018-06-17T12:27:55.044Z,56.59
2018-06-17T12:28:55.116Z,56.10
2018-06-17T12:29:55.182Z,55.20
2018-06-17T12:30:55.250Z,57.63
2018-06-17T12:31:55.323Z,58.31
2018-06-17T12:32:55.390Z,59.18
2018-06-17T12:33:55.457Z,59.38
2018-06-17T12:34:55.531Z,58.92
2018-06-17T12:35:55.595Z,58.82
2018-06-17T12:36:55.662Z,58.72
2018-06-17T12:37:55.733Z,58.82
2018-06-17T12:38:55.802Z,58.92
2018-06-17T12:39:55.871Z,59.92
2018-06-17T12:40:55.939Z,60.82
2018-06-17T12:41:56.008Z,60.24
2018-06-17T12:42:56.077Z,61.02
2018-06-17T12:43:56.143Z,60.63
2018-06-17T12:44:56.362Z,61.27
2018-06-17T12:45:56.280Z,62.12
2018-06-17T12:46:56.348Z,63.47
2018-06-17T12:47:56.415Z,64.11
2018-06-17T12:48:56.485Z,65.17
2018-06-17T12:49:56.551Z,64.92
2018-06-17T12:50:56.619Z,65.27
2018-06-17T12:51:56.686Z,63.76
2018-06-17T12:52:56.777Z,63.21
2018-06-17T12:53:56.821Z,62.15